Time;durP1;ratioP1;P1;durP2;ratioP2;P2;SDS_P1;SDS_P2;PMS_P1;PMS_P2;Temp;Humidity;BMP_temperature;BMP_pressure;BME280_temperature;BME280_humidity;BME280_pressure;Samples;Min_cycle;Max_cycle;Signal;HPM_P1;HPM_P2
2023/04/15 00:01:02;;;;;;;22.50;19.42;;;;;;;10.85;100.00;98304.09;5051654;28;20017;-77
2023/04/15 00:03:28;;;;;;;36.10;28.30;;;;;;;10.87;100.00;98302.22;5051479;28;20033;-77
2023/04/15 00:05:53;;;;;;;34.08;26.80;;;;;;;10.80;100.00;98293.16;5051739;28;20066;-77
2023/04/15 00:08:19;;;;;;;21.05;17.17;;;;;;;10.71;100.00;98283.38;5051801;28;20104;-77
2023/04/15 00:10:45;;;;;;;27.90;21.33;;;;;;;10.80;100.00;98305.34;5050153;28;20120;-77
2023/04/15 00:13:11;;;;;;;21.23;16.50;;;;;;;10.62;100.00;98282.25;5051584;28;20039;-77
2023/04/15 00:15:36;;;;;;;34.42;27.73;;;;;;;10.76;100.00;98303.91;5054179;28;20032;-77
2023/04/15 00:18:03;;;;;;;24.98;18.35;;;;;;;10.61;100.00;98280.56;5055419;28;20104;-77
2023/04/15 00:20:28;;;;;;;40.47;30.55;;;;;;;10.85;100.00;98288.47;5055616;28;20108;-77
2023/04/15 00:22:53;;;;;;;41.22;29.95;;;;;;;10.65;100.00;98276.81;5055218;28;20109;-78
2023/04/15 00:25:19;;;;;;;53.95;41.72;;;;;;;10.71;100.00;98280.78;5055289;28;20064;-77
2023/04/15 00:27:44;;;;;;;47.75;36.92;;;;;;;10.71;100.00;98283.38;5053716;28;20033;-77
2023/04/15 00:30:13;;;;;;;30.77;23.90;;;;;;;10.55;100.00;98252.34;5055493;28;20051;-77
2023/04/15 00:32:38;;;;;;;23.27;17.88;;;;;;;10.79;100.00;98295.84;5054903;28;20017;-77
2023/04/15 00:35:04;;;;;;;30.08;22.85;;;;;;;10.63;100.00;98280.47;5055170;28;20025;-77
2023/04/15 00:37:29;;;;;;;28.10;23.88;;;;;;;10.77;100.00;98287.31;5055456;28;20483;-77
2023/04/15 00:39:55;;;;;;;21.65;16.77;;;;;;;10.67;100.00;98282.75;5054770;28;20475;-77
2023/04/15 00:42:20;;;;;;;23.20;15.77;;;;;;;10.52;100.00;98265.56;5055051;28;20056;-77
2023/04/15 00:44:46;;;;;;;25.02;22.17;;;;;;;10.64;100.00;98300.34;5053403;28;20064;-77
2023/04/15 00:47:12;;;;;;;25.33;19.23;;;;;;;10.62;100.00;98290.06;5054913;28;20636;-77
2023/04/15 00:49:37;;;;;;;22.88;16.10;;;;;;;10.48;100.00;98275.34;5055023;28;20083;-77
2023/04/15 00:52:03;;;;;;;23.17;19.48;;;;;;;10.61;100.00;98292.75;5054865;28;20460;-77
2023/04/15 00:54:28;;;;;;;21.65;16.73;;;;;;;10.54;100.00;98278.50;5054864;28;20125;-77
2023/04/15 00:56:54;;;;;;;35.83;25.92;;;;;;;10.60;100.00;98293.69;5054866;28;20416;-77
2023/04/15 00:59:20;;;;;;;24.30;17.17;;;;;;;10.42;100.00;98273.19;5054634;28;20044;-77
2023/04/15 01:01:45;;;;;;;20.25;15.93;;;;;;;10.34;100.00;98259.84;5054639;28;20029;-77
2023/04/15 01:04:11;;;;;;;17.85;15.57;;;;;;;10.35;100.00;98269.31;5054670;28;20374;-77
2023/04/15 01:06:37;;;;;;;27.73;22.50;;;;;;;10.43;100.00;98290.47;5054688;28;20021;-77
2023/04/15 01:09:02;;;;;;;20.63;16.42;;;;;;;10.32;100.00;98277.31;5054364;28;20079;-77
2023/04/15 01:11:29;;;;;;;18.25;16.30;;;;;;;10.39;100.00;98307.22;5054557;28;20484;-77
2023/04/15 01:13:56;;;;;;;21.65;17.35;;;;;;;10.38;100.00;98283.91;5054264;28;20515;-77
2023/04/15 01:16:21;;;;;;;25.50;16.70;;;;;;;10.48;100.00;98287.53;5054415;28;20078;-77
2023/04/15 01:18:47;;;;;;;19.23;16.73;;;;;;;10.33;100.00;98279.00;5054336;28;20025;-77
2023/04/15 01:21:13;;;;;;;22.83;16.52;;;;;;;10.41;100.00;98294.94;5054329;28;20358;-77
2023/04/15 01:23:39;;;;;;;19.10;16.10;;;;;;;10.53;100.00;98305.44;5054282;28;20028;-77
2023/04/15 01:26:06;;;;;;;20.75;16.45;;;;;;;10.56;100.00;98298.25;5053171;28;20025;-77
2023/04/15 01:28:32;;;;;;;18.77;15.45;;;;;;;10.24;100.00;98258.78;5053909;28;20598;-77
2023/04/15 01:31:08;;;;;;;21.67;17.38;;;;;;;10.57;100.00;98301.69;5054107;28;20027;-77
2023/04/15 01:33:33;;;;;;;21.65;18.25;;;;;;;10.33;100.00;98262.56;5054174;28;20477;-77
2023/04/15 01:35:58;;;;;;;26.58;18.10;;;;;;;10.44;100.00;98289.50;5053614;28;20040;-77
2023/04/15 01:38:25;;;;;;;19.65;16.58;;;;;;;10.38;100.00;98276.94;5052754;28;20040;-77
2023/04/15 01:40:51;;;;;;;21.45;18.02;;;;;;;10.44;100.00;98284.31;5052461;28;20028;-77
2023/04/15 01:43:16;;;;;;;19.65;16.05;;;;;;;10.49;100.00;98303.06;5053734;28;20025;-77
2023/04/15 01:45:41;;;;;;;29.02;19.42;;;;;;;10.44;100.00;98294.72;5053843;28;20031;-77
2023/04/15 01:48:08;;;;;;;19.48;16.02;;;;;;;10.40;100.00;98279.41;5053890;28;20108;-78
2023/04/15 01:50:35;;;;;;;19.75;16.02;;;;;;;10.52;100.00;98307.22;5053840;28;20025;-77
2023/04/15 01:53:01;;;;;;;22.23;15.88;;;;;;;10.40;100.00;98277.63;5053517;28;20029;-77
2023/04/15 01:55:26;;;;;;;21.35;16.05;;;;;;;10.55;100.00;98296.59;5053671;28;20472;-77
2023/04/15 01:57:51;;;;;;;21.13;16.58;;;;;;;10.53;100.00;98274.22;5053310;28;20075;-77
2023/04/15 02:00:17;;;;;;;22.60;17.67;;;;;;;10.59;100.00;98274.63;5053550;28;20059;-77
2023/04/15 02:02:42;;;;;;;21.08;15.60;;;;;;;10.42;100.00;98272.34;5053680;28;20029;-77
2023/04/15 02:05:08;;;;;;;21.58;16.27;;;;;;;10.49;100.00;98289.19;5053272;28;20487;-77
2023/04/15 02:07:33;;;;;;;21.67;15.70;;;;;;;10.50;100.00;98280.47;5053523;28;20025;-77
2023/04/15 02:09:59;;;;;;;20.33;17.98;;;;;;;10.58;100.00;98291.19;5053196;28;20025;-77
2023/04/15 02:12:24;;;;;;;20.13;15.02;;;;;;;10.50;100.00;98288.28;5053505;28;20028;-77
2023/04/15 02:14:49;;;;;;;23.33;16.85;;;;;;;10.48;100.00;98300.56;5053227;28;20052;-77
2023/04/15 02:17:15;;;;;;;20.42;15.52;;;;;;;10.43;100.00;98276.63;5053352;28;20021;-77
2023/04/15 02:19:41;;;;;;;20.50;15.68;;;;;;;10.54;100.00;98301.94;5053339;28;20057;-77
2023/04/15 02:22:08;;;;;;;18.70;14.93;;;;;;;10.45;100.00;98283.41;5052980;28;20024;-77
2023/04/15 02:24:33;;;;;;;17.75;14.68;;;;;;;10.62;100.00;98304.81;5053057;28;20100;-77
2023/04/15 02:26:59;;;;;;;18.90;15.10;;;;;;;10.52;100.00;98275.97;5052721;28;20106;-77
2023/04/15 02:29:25;;;;;;;25.33;14.95;;;;;;;10.54;100.00;98307.97;5053022;28;20373;-77
2023/04/15 02:31:50;;;;;;;18.67;15.90;;;;;;;10.53;100.00;98310.66;5052912;28;20024;-77
2023/04/15 02:34:16;;;;;;;20.15;15.55;;;;;;;10.57;100.00;98307.72;5053300;28;20032;-77
2023/04/15 02:36:41;;;;;;;18.23;14.55;;;;;;;10.41;100.00;98297.56;5052114;28;20028;-77
2023/04/15 02:39:06;;;;;;;20.02;15.82;;;;;;;10.49;100.00;98284.00;5052621;28;20036;-77
2023/04/15 02:41:32;;;;;;;20.33;16.70;;;;;;;10.61;100.00;98306.59;5052661;28;20074;-77
2023/04/15 02:43:57;;;;;;;20.58;15.75;;;;;;;10.49;100.00;98286.59;5052570;28;20028;-77
2023/04/15 02:46:23;;;;;;;20.10;14.07;;;;;;;10.59;100.00;98316.28;5053023;28;20032;-77
2023/04/15 02:48:49;;;;;;;22.27;17.02;;;;;;;10.60;100.00;98315.34;5052539;28;20536;-77
2023/04/15 02:51:19;;;;;;;23.88;17.73;;;;;;;10.62;100.00;98318.69;5052657;28;20037;-77
2023/04/15 02:53:45;;;;;;;22.67;18.73;;;;;;;10.44;100.00;98296.50;5052500;28;20045;-77
2023/04/15 02:56:11;;;;;;;21.08;15.57;;;;;;;10.42;100.00;98303.59;5052172;28;20025;-77
2023/04/15 02:58:37;;;;;;;22.60;18.48;;;;;;;10.42;100.00;98301.81;5052624;28;20025;-77
2023/04/15 03:01:03;;;;;;;24.52;18.48;;;;;;;10.39;100.00;98306.38;5052383;28;20025;-77
2023/04/15 03:03:28;;;;;;;25.80;18.05;;;;;;;10.22;100.00;98290.09;5052430;28;20527;-78
2023/04/15 03:05:53;;;;;;;23.73;18.20;;;;;;;10.22;100.00;98292.69;5052164;28;20221;-77
2023/04/15 03:08:20;;;;;;;29.52;20.85;;;;;;;10.29;100.00;98311.38;5052264;28;20028;-77
2023/04/15 03:10:46;;;;;;;26.42;17.98;;;;;;;10.05;100.00;98290.38;5052190;28;20028;-77
2023/04/15 03:13:11;;;;;;;26.17;19.15;;;;;;;10.18;100.00;98308.63;5052184;28;20405;-77
2023/04/15 03:15:37;;;;;;;28.77;22.15;;;;;;;10.17;100.00;98328.59;5052323;28;20029;-77
2023/04/15 03:18:02;;;;;;;31.67;22.70;;;;;;;10.10;100.00;98323.91;5051924;28;20025;-78
2023/04/15 03:20:27;;;;;;;29.13;21.58;;;;;;;9.94;100.00;98305.84;5052124;28;20024;-77
2023/04/15 03:22:53;;;;;;;27.17;20.95;;;;;;;10.04;100.00;98339.94;5051811;28;20036;-77
2023/04/15 03:25:18;;;;;;;19.90;16.50;;;;;;;10.03;100.00;98352.09;5051900;28;20025;-77
2023/04/15 03:27:43;;;;;;;24.23;18.25;;;;;;;10.03;100.00;98336.50;5052246;28;20485;-78
2023/04/15 03:30:09;;;;;;;23.52;17.15;;;;;;;9.97;100.00;98337.72;5051857;28;20053;-78
2023/04/15 03:32:35;;;;;;;22.13;18.48;;;;;;;10.07;100.00;98347.50;5052071;28;20029;-77
2023/04/15 03:35:00;;;;;;;24.85;17.77;;;;;;;9.87;100.00;98333.22;5051653;28;20025;-77
2023/04/15 03:37:26;;;;;;;24.52;18.10;;;;;;;9.84;100.00;98342.03;5051930;28;20088;-77
2023/04/15 03:39:51;;;;;;;24.88;17.88;;;;;;;9.92;100.00;98349.34;5051557;28;20029;-78
2023/04/15 03:42:16;;;;;;;26.27;17.48;;;;;;;9.73;100.00;98329.75;5052327;28;20052;-77
2023/04/15 03:44:42;;;;;;;24.38;18.27;;;;;;;9.86;100.00;98358.41;5052008;28;20033;-77
2023/04/15 03:47:07;;;;;;;21.40;17.40;;;;;;;9.75;100.00;98343.47;5051555;28;20497;-77
2023/04/15 03:49:32;;;;;;;23.95;17.63;;;;;;;9.87;100.00;98367.03;5054760;28;20025;-77
2023/04/15 03:51:58;;;;;;;21.08;17.77;;;;;;;9.80;100.00;98347.53;5058264;28;20028;-77
2023/04/15 03:54:24;;;;;;;23.27;17.58;;;;;;;9.87;100.00;98380.03;5058336;28;20043;-77
2023/04/15 03:56:49;;;;;;;22.70;16.55;;;;;;;9.83;100.00;98384.59;5058547;28;20108;-77
2023/04/15 03:59:15;;;;;;;23.08;18.42;;;;;;;9.75;100.00;98374.66;5058390;28;20028;-77
2023/04/15 04:01:40;;;;;;;23.52;18.05;;;;;;;9.74;100.00;98393.81;5058448;28;20025;-77
2023/04/15 04:04:06;;;;;;;21.45;17.15;;;;;;;9.62;100.00;98367.75;5058037;28;20033;-77
2023/04/15 04:06:31;;;;;;;26.70;17.67;;;;;;;9.59;100.00;98378.31;5058316;28;20152;-77
2023/04/15 04:08:57;;;;;;;22.48;17.83;;;;;;;9.75;100.00;98395.47;5057984;28;20040;-77
2023/04/15 04:11:22;;;;;;;25.00;19.83;;;;;;;9.70;100.00;98392.31;5058215;28;20075;-77
2023/04/15 04:13:47;;;;;;;26.38;18.67;;;;;;;9.41;100.00;98355.16;5058444;28;20059;-77
2023/04/15 04:16:13;;;;;;;26.23;20.52;;;;;;;9.65;100.00;98394.38;5058065;28;20021;-77
2023/04/15 04:18:38;;;;;;;30.75;19.77;;;;;;;9.60;100.00;98393.81;5058271;28;20029;-77
2023/04/15 04:21:04;;;;;;;26.60;20.30;;;;;;;9.50;100.00;98397.94;5058019;28;20021;-77
2023/04/15 04:23:29;;;;;;;28.92;21.05;;;;;;;9.47;100.00;98395.53;5057657;28;20043;-77
2023/04/15 04:25:55;;;;;;;28.63;20.17;;;;;;;9.32;100.00;98370.50;5058143;28;20031;-77
2023/04/15 04:28:20;;;;;;;27.75;20.30;;;;;;;9.44;100.00;98403.53;5056824;28;20040;-78
2023/04/15 04:30:46;;;;;;;26.60;20.05;;;;;;;9.23;100.00;98380.53;5058235;28;20036;-77
2023/04/15 04:33:11;;;;;;;30.90;22.63;;;;;;;9.21;100.00;98384.13;5057967;28;20025;-77
2023/04/15 04:35:37;;;;;;;25.52;20.83;;;;;;;9.38;100.00;98409.09;5057988;28;20459;-77
2023/04/15 04:38:03;;;;;;;26.70;20.60;;;;;;;9.40;100.00;98415.03;5057804;28;20021;-77
2023/04/15 04:40:29;;;;;;;32.42;19.05;;;;;;;9.32;100.00;98423.28;5058256;28;20083;-77
2023/04/15 04:42:55;;;;;;;28.48;20.80;;;;;;;9.13;100.00;98401.94;5058019;28;20117;-77
2023/04/15 04:45:20;;;;;;;24.52;18.35;;;;;;;9.18;100.00;98434.50;5058116;28;20508;-77
2023/04/15 04:47:46;;;;;;;27.58;19.73;;;;;;;9.14;100.00;98419.19;5058083;28;20032;-77
2023/04/15 04:50:11;;;;;;;23.67;18.02;;;;;;;9.13;100.00;98443.50;5057714;28;20064;-77
2023/04/15 04:52:37;;;;;;;25.40;18.55;;;;;;;9.01;100.00;98432.09;5057892;28;20116;-77
2023/04/15 04:55:03;;;;;;;22.40;18.25;;;;;;;9.06;100.00;98430.06;5057573;28;20040;-77
2023/04/15 04:57:28;;;;;;;22.60;17.00;;;;;;;8.87;100.00;98411.31;5057937;28;20017;-77
2023/04/15 04:59:53;;;;;;;21.15;16.23;;;;;;;8.98;100.00;98440.09;5057882;28;20055;-77
2023/04/15 05:02:19;;;;;;;20.23;16.02;;;;;;;8.84;100.00;98425.28;5053422;28;20070;-77
2023/04/15 05:04:44;;;;;;;21.90;15.70;;;;;;;8.96;100.00;98439.31;5054611;28;20032;-77
2023/04/15 05:07:10;;;;;;;20.13;14.75;;;;;;;8.87;100.00;98414.75;5054450;28;20108;-77
2023/04/15 05:09:35;;;;;;;18.95;14.35;;;;;;;9.09;100.00;98444.63;5054485;28;20021;-77
2023/04/15 05:12:03;;;;;;;18.42;14.43;;;;;;;9.19;100.00;98441.41;5054424;28;20021;-77
2023/04/15 05:14:28;;;;;;;13.82;11.43;;;;;;;9.11;100.00;98430.63;5054554;28;20029;-77
2023/04/15 05:16:53;;;;;;;11.40;8.15;;;;;;;9.13;99.54;98453.91;5054547;28;20467;-77
2023/04/15 05:19:19;;;;;;;11.65;7.90;;;;;;;9.07;98.75;98457.72;5054238;28;20025;-77
2023/04/15 05:21:44;;;;;;;10.60;7.10;;;;;;;8.89;97.73;98446.66;5054318;28;20025;-77
2023/04/15 05:24:09;;;;;;;10.65;6.80;;;;;;;8.81;97.72;98437.66;5053944;28;20028;-77
2023/04/15 05:26:35;;;;;;;8.70;6.90;;;;;;;8.97;97.70;98461.75;5054139;28;20061;-77
2023/04/15 05:29:00;;;;;;;8.27;6.05;;;;;;;8.85;96.99;98455.56;5053878;28;20037;-78
2023/04/15 05:31:25;;;;;;;6.22;5.60;;;;;;;8.83;97.81;98444.41;5054155;28;20045;-77
2023/04/15 05:33:51;;;;;;;6.03;5.28;;;;;;;8.78;96.97;98446.44;5054037;28;20021;-77
2023/04/15 05:36:16;;;;;;;4.05;3.65;;;;;;;8.84;96.39;98455.63;5053907;28;20100;-77
2023/04/15 05:38:41;;;;;;;4.63;3.78;;;;;;;9.00;95.69;98464.19;5053978;28;20025;-77
2023/04/15 05:41:07;;;;;;;3.97;3.58;;;;;;;9.10;94.91;98470.53;5053909;28;20064;-77
2023/04/15 05:43:33;;;;;;;3.67;3.38;;;;;;;9.26;93.95;98486.00;5053848;28;20025;-77
2023/04/15 05:45:58;;;;;;;4.53;3.15;;;;;;;9.32;93.15;98488.25;5054023;28;20028;-77
2023/04/15 05:48:23;;;;;;;3.20;2.90;;;;;;;9.30;92.76;98489.25;5052617;28;20547;-77
2023/04/15 05:50:49;;;;;;;3.40;3.10;;;;;;;9.40;92.18;98483.44;5053725;28;20083;-78
2023/04/15 05:53:14;;;;;;;3.75;2.95;;;;;;;9.55;92.10;98509.41;5053409;28;20032;-77
2023/04/15 05:55:39;;;;;;;3.70;3.28;;;;;;;9.34;91.53;98490.75;5054087;28;20033;-78
2023/04/15 05:58:05;;;;;;;4.05;3.65;;;;;;;9.35;91.45;98508.84;5053569;28;20463;-77
2023/04/15 06:00:31;;;;;;;3.25;2.95;;;;;;;9.42;90.87;98517.13;5053703;28;20032;-78
2023/04/15 06:02:57;;;;;;;4.57;3.58;;;;;;;9.30;91.12;98513.47;5053580;28;20063;-78
2023/04/15 06:05:23;;;;;;;4.32;3.35;;;;;;;9.25;90.78;98500.78;5053294;28;20047;-78
2023/04/15 06:07:49;;;;;;;2.88;2.67;;;;;;;9.48;90.25;98519.34;5053349;28;20465;-77
2023/04/15 06:10:14;;;;;;;2.72;2.40;;;;;;;9.57;89.27;98520.56;5053418;28;20033;-78
2023/04/15 06:12:40;;;;;;;2.47;2.28;;;;;;;9.42;88.51;98499.75;5053194;28;20498;-77
2023/04/15 06:15:06;;;;;;;3.00;2.60;;;;;;;9.55;88.24;98525.00;5053294;28;20056;-78
2023/04/15 06:17:31;;;;;;;2.38;2.17;;;;;;;9.53;88.27;98524.28;5053441;28;20431;-78
2023/04/15 06:19:56;;;;;;;2.30;2.10;;;;;;;9.66;87.43;98533.84;5053263;28;20036;-77
2023/04/15 06:22:22;;;;;;;4.47;2.17;;;;;;;9.70;86.72;98521.50;5052889;28;20021;-78
2023/04/15 06:24:51;;;;;;;2.72;2.40;;;;;;;9.95;85.76;98523.44;5053261;28;20068;-78
2023/04/15 06:27:17;;;;;;;2.08;1.92;;;;;;;10.52;84.00;98535.47;5052898;28;20033;-77
2023/04/15 06:29:43;;;;;;;1.77;1.67;;;;;;;11.05;80.27;98531.16;5052776;28;20076;-76
2023/04/15 06:32:09;;;;;;;2.10;1.90;;;;;;;11.94;78.80;98524.19;5052722;28;20484;-77
2023/04/15 06:34:34;;;;;;;3.63;3.33;;;;;;;12.87;74.29;98514.00;5052672;28;20037;-76
2023/04/15 06:37:00;;;;;;;2.35;2.15;;;;;;;13.84;72.46;98538.91;5048492;28;20017;-77
2023/04/15 06:39:25;;;;;;;2.55;2.35;;;;;;;14.38;69.15;98537.31;5040443;28;20032;-78
2023/04/15 06:41:51;;;;;;;1.98;1.88;;;;;;;14.34;68.81;98521.00;5042713;28;20021;-78
2023/04/15 06:44:17;;;;;;;1.60;1.50;;;;;;;14.63;67.36;98528.34;5032555;28;20029;-77
2023/04/15 06:46:43;;;;;;;1.60;1.50;;;;;;;15.82;65.72;98530.66;5048344;28;20027;-78
2023/04/15 06:49:08;;;;;;;1.95;1.80;;;;;;;16.83;62.85;98513.91;5051032;28;20033;-78
2023/04/15 06:51:34;;;;;;;1.95;1.80;;;;;;;17.60;59.95;98503.22;5052413;28;20053;-78
2023/04/15 06:54:01;;;;;;;2.72;1.70;;;;;;;18.09;58.51;98529.41;5052538;28;20043;-78
2023/04/15 06:56:27;;;;;;;2.53;2.15;;;;;;;17.93;57.94;98535.28;5052531;28;20024;-78
2023/04/15 06:58:52;;;;;;;2.22;1.80;;;;;;;17.10;57.97;98548.19;5052449;28;20021;-78
2023/04/15 07:01:17;;;;;;;3.05;1.70;;;;;;;15.39;60.00;98547.41;5052088;28;20024;-78
2023/04/15 07:03:43;;;;;;;2.10;1.70;;;;;;;15.19;60.65;98567.44;5052337;28;20071;-78
2023/04/15 07:06:09;;;;;;;1.67;1.58;;;;;;;15.51;59.42;98527.19;5051994;28;20465;-78
2023/04/15 07:08:34;;;;;;;3.53;2.13;;;;;;;16.36;59.65;98564.44;5052553;28;20028;-78
2023/04/15 07:11:00;;;;;;;2.45;2.10;;;;;;;18.20;56.66;98542.38;5052249;28;20082;-78
2023/04/15 07:13:26;;;;;;;3.50;2.28;;;;;;;20.72;52.28;98557.56;5052067;28;20075;-78
2023/04/15 07:15:51;;;;;;;2.85;2.35;;;;;;;23.49;47.88;98569.06;5052246;28;20053;-78
2023/04/15 07:18:16;;;;;;;2.13;1.90;;;;;;;25.71;43.15;98558.75;5051908;28;20405;-78
2023/04/15 07:20:42;;;;;;;2.45;1.92;;;;;;;27.13;40.10;98589.41;5052037;28;20388;-78
2023/04/15 07:23:07;;;;;;;2.20;1.80;;;;;;;26.56;39.00;98594.97;5051908;28;20473;-78
2023/04/15 07:25:33;;;;;;;2.22;1.73;;;;;;;24.83;40.32;98576.03;5051516;28;20382;-78
2023/04/15 07:27:58;;;;;;;1.42;1.33;;;;;;;24.37;40.83;98566.50;5052166;28;20029;-78
2023/04/15 07:30:23;;;;;;;1.73;1.40;;;;;;;24.32;40.75;98578.69;5047302;28;20074;-78
2023/04/15 07:32:49;;;;;;;1.23;1.10;;;;;;;23.01;41.55;98584.41;5052043;28;20021;-78
2023/04/15 07:35:14;;;;;;;3.20;3.00;;;;;;;21.56;44.09;98594.34;5051636;28;20036;-78
2023/04/15 07:37:40;;;;;;;3.72;3.42;;;;;;;21.43;44.94;98589.56;5051937;28;20028;-78
2023/04/15 07:40:06;;;;;;;4.97;4.53;;;;;;;20.79;45.40;98590.31;5040831;28;20029;-78
2023/04/15 07:42:33;;;;;;;7.40;6.75;;;;;;;19.89;46.72;98595.25;5046469;28;20151;-78
2023/04/15 07:44:58;;;;;;;4.30;3.30;;;;;;;18.61;48.22;98590.28;5051818;28;20361;-78
2023/04/15 07:47:24;;;;;;;2.38;2.17;;;;;;;17.94;50.35;98597.53;5051571;28;20054;-78
2023/04/15 07:49:50;;;;;;;5.35;1.60;;;;;;;17.41;51.50;98563.84;5051694;28;20056;-78
2023/04/15 07:52:15;;;;;;;1.40;1.20;;;;;;;17.49;51.82;98571.00;5051493;28;20028;-78
2023/04/15 07:54:41;;;;;;;1.20;1.10;;;;;;;17.63;52.29;98565.31;5051675;28;20029;-78
2023/04/15 07:57:06;;;;;;;1.58;1.02;;;;;;;17.60;52.61;98595.38;5051718;28;20100;-78
2023/04/15 07:59:32;;;;;;;1.45;1.35;;;;;;;17.77;51.25;98564.88;5051830;28;20029;-78
2023/04/15 08:01:58;;;;;;;1.30;1.20;;;;;;;17.41;52.05;98566.47;5051294;28;20025;-78
2023/04/15 08:04:23;;;;;;;2.75;1.30;;;;;;;16.78;53.66;98571.34;5051292;28;20048;-78
2023/04/15 08:06:49;;;;;;;1.40;1.30;;;;;;;16.40;54.74;98581.63;5051681;28;20461;-82
2023/04/15 08:09:15;;;;;;;1.08;1.02;;;;;;;16.12;55.64;98585.78;5051504;28;20033;-82
2023/04/15 08:11:40;;;;;;;1.45;1.35;;;;;;;15.85;56.43;98568.00;5051979;28;20025;-82
2023/04/15 08:14:05;;;;;;;2.40;1.90;;;;;;;15.62;56.54;98576.94;5051931;28;20533;-82
2023/04/15 08:16:31;;;;;;;2.05;1.88;;;;;;;15.86;57.12;98595.91;5051420;28;20025;-82
2023/04/15 08:18:56;;;;;;;1.25;1.00;;;;;;;15.73;56.71;98599.72;5051487;28;20196;-84
2023/04/15 08:21:22;;;;;;;1.50;1.40;;;;;;;15.00;57.73;98598.72;5051530;28;20029;-84
2023/04/15 08:23:50;;;;;;;2.67;1.80;;;;;;;14.76;59.41;98614.69;5051595;28;20029;-84
2023/04/15 08:26:15;;;;;;;4.32;2.58;;;;;;;14.32;59.87;98582.31;5050065;28;20392;-84
2023/04/15 08:28:43;;;;;;;3.30;2.22;;;;;;;14.27;61.48;98615.91;5046532;28;20056;-84
2023/04/15 08:31:08;;;;;;;1.38;1.27;;;;;;;13.53;61.56;98597.19;5031505;28;20037;-83
2023/04/15 08:33:34;;;;;;;3.17;1.80;;;;;;;13.54;62.42;98601.44;5029878;28;20037;-81
2023/04/15 08:36:00;;;;;;;2.20;2.00;;;;;;;13.76;63.14;98608.50;5032019;28;20211;-81
2023/04/15 08:38:25;;;;;;;2.70;2.38;;;;;;;13.94;62.91;98621.00;5034740;28;20164;-81
2023/04/15 08:40:51;;;;;;;2.60;1.83;;;;;;;14.01;62.18;98641.50;5035142;28;20104;-81
2023/04/15 08:43:32;;;;;;;2.38;1.75;;;;;;;13.60;62.64;98630.59;5034625;28;20104;-81
2023/04/15 08:46:00;;;;;;;2.00;1.70;;;;;;;13.46;63.93;98631.63;5035350;28;20029;-81
2023/04/15 08:48:28;;;;;;;2.35;1.55;;;;;;;13.17;63.54;98631.13;5034737;28;20030;-81
2023/04/15 08:50:54;;;;;;;2.92;1.70;;;;;;;13.07;63.80;98629.31;5034771;28;20028;-81
2023/04/15 08:53:20;;;;;;;2.95;1.30;;;;;;;13.06;64.89;98632.84;5034727;28;20037;-81
2023/04/15 08:55:49;;;;;;;1.75;1.55;;;;;;;13.27;63.93;98623.47;5034920;28;20034;-81
2023/04/15 08:58:15;;;;;;;1.77;1.55;;;;;;;13.55;62.56;98635.34;5034642;28;20033;-81
2023/04/15 09:00:41;;;;;;;1.83;1.50;;;;;;;13.59;62.31;98652.47;5034652;28;20017;-80
2023/04/15 09:03:07;;;;;;;1.65;1.55;;;;;;;13.51;62.07;98654.81;5034596;28;20033;-81
2023/04/15 09:05:34;;;;;;;1.83;1.38;;;;;;;13.38;62.30;98633.16;5034610;28;20541;-81
2023/04/15 09:08:00;;;;;;;2.00;1.80;;;;;;;13.32;62.92;98634.44;5034731;28;20424;-81
2023/04/15 09:10:26;;;;;;;1.20;1.10;;;;;;;12.74;64.14;98630.81;5041445;28;20031;-81
2023/04/15 09:12:51;;;;;;;2.83;1.40;;;;;;;12.77;64.29;98659.34;5043529;28;20025;-81
2023/04/15 09:15:17;;;;;;;2.47;1.80;;;;;;;12.72;64.76;98649.22;5042067;28;20036;-81
2023/04/15 09:17:44;;;;;;;0.80;0.80;;;;;;;12.92;63.95;98653.00;5044078;28;20032;-81
2023/04/15 09:20:14;;;;;;;1.27;1.17;;;;;;;13.02;64.50;98657.56;5042935;28;20021;-81
2023/04/15 09:22:41;;;;;;;2.90;1.90;;;;;;;13.53;63.86;98646.88;5042274;28;20075;-81
2023/04/15 09:25:22;;;;;;;9.63;8.65;;;;;;;14.23;63.05;98654.59;5036598;28;20029;-81
2023/04/15 09:27:52;;;;;;;16.25;14.75;;;;;;;14.55;61.80;98631.16;5046239;28;20030;-81
2023/04/15 09:30:18;;;;;;;3.05;2.75;;;;;;;15.04;60.67;98642.09;5042658;28;20063;-81
2023/04/15 09:32:57;;;;;;;2.40;2.20;;;;;;;15.30;60.87;98645.25;5043257;28;20477;-81
2023/04/15 09:35:24;;;;;;;1.33;1.23;;;;;;;15.38;60.21;98632.31;5043737;28;20397;-81
2023/04/15 09:37:50;;;;;;;2.05;1.50;;;;;;;15.25;58.93;98640.34;5054278;28;20102;-81
2023/04/15 09:40:31;;;;;;;1.30;1.20;;;;;;;15.29;59.12;98661.94;5053754;28;20473;-81
2023/04/15 09:42:56;;;;;;;1.50;1.40;;;;;;;15.16;59.88;98648.97;5034088;28;20059;-81
2023/04/15 09:45:23;;;;;;;1.65;1.42;;;;;;;14.62;61.15;98658.56;5033848;28;20110;-81
2023/04/15 09:47:50;;;;;;;1.60;1.50;;;;;;;14.48;60.64;98643.88;5033317;28;20029;-81
2023/04/15 09:50:15;;;;;;;1.48;1.20;;;;;;;14.38;61.27;98647.34;5033666;28;20057;-81
2023/04/15 09:52:42;;;;;;;1.20;1.10;;;;;;;14.35;61.34;98674.59;5033905;28;20067;-81
2023/04/15 09:55:08;;;;;;;1.02;1.00;;;;;;;14.33;61.73;98662.59;5034015;28;20061;-85
2023/04/15 09:57:35;;;;;;;1.85;1.40;;;;;;;14.38;62.15;98652.56;5033693;28;20118;-79
2023/04/15 10:00:06;;;;;;;1.55;1.42;;;;;;;14.70;62.54;98668.41;5033746;28;20059;-90
2023/04/15 10:02:32;;;;;;;1.48;1.38;;;;;;;14.97;61.85;98678.50;5032274;28;20037;-91
2023/04/15 10:04:58;;;;;;;1.95;1.45;;;;;;;15.12;60.21;98679.88;5032324;28;20040;-90
2023/04/15 10:07:25;;;;;;;1.15;1.05;;;;;;;15.40;59.08;98675.00;5032006;28;20374;-80
2023/04/15 10:09:50;;;;;;;1.48;1.20;;;;;;;15.52;57.33;98671.38;5033615;28;20025;-81
2023/04/15 10:12:17;;;;;;;1.30;1.20;;;;;;;15.26;57.82;98667.44;5033280;28;20032;-81
2023/04/15 10:14:43;;;;;;;2.75;1.08;;;;;;;15.19;58.95;98656.59;5033503;28;20026;-81
2023/04/15 10:17:13;;;;;;;1.50;1.40;;;;;;;15.05;58.88;98678.72;5033777;28;20477;-81
2023/04/15 10:19:40;;;;;;;2.05;1.70;;;;;;;14.92;59.53;98668.38;5033365;28;20053;-81
2023/04/15 10:22:06;;;;;;;1.23;1.13;;;;;;;14.69;59.98;98672.81;5033209;28;20446;-81
2023/04/15 10:24:32;;;;;;;6.53;5.47;;;;;;;14.87;60.83;98657.41;5032899;28;20521;-81
2023/04/15 10:26:59;;;;;;;7.97;7.18;;;;;;;15.29;60.03;98683.75;5033304;28;20028;-81
2023/04/15 10:29:27;;;;;;;3.28;2.72;;;;;;;15.41;59.38;98682.75;5032878;28;20085;-81
2023/04/15 10:31:57;;;;;;;2.20;2.00;;;;;;;15.47;59.27;98676.19;5033165;28;20029;-81
2023/04/15 10:34:24;;;;;;;2.10;1.85;;;;;;;15.53;59.42;98690.59;5032678;28;20037;-81
2023/04/15 10:36:50;;;;;;;1.00;0.90;;;;;;;15.13;59.47;98673.69;5035833;28;20085;-81
2023/04/15 10:39:42;;;;;;;1.40;1.17;;;;;;;15.20;59.11;98687.13;5052334;28;20048;-81
2023/04/15 10:42:08;;;;;;;1.85;1.60;;;;;;;14.91;59.08;98687.66;5052678;28;20039;-81
2023/04/15 10:44:55;;;;;;;2.83;2.55;;;;;;;15.16;59.46;98693.56;5050481;28;20064;-79
2023/04/15 10:47:21;;;;;;;14.93;12.65;;;;;;;15.39;58.59;98676.81;5032346;28;20079;-80
2023/04/15 10:49:50;;;;;;;11.65;9.82;;;;;;;15.78;58.62;98684.16;5032820;28;20025;-80
2023/04/15 10:52:24;;;;;;;5.03;4.63;;;;;;;15.86;58.04;98684.38;5032629;28;20408;-80
2023/04/15 10:55:02;;;;;;;2.92;2.70;;;;;;;15.87;57.45;98688.66;5032693;28;20029;-80
2023/04/15 10:57:34;;;;;;;1.42;1.33;;;;;;;15.59;57.02;98662.06;5032128;28;20048;-81
2023/04/15 11:00:22;;;;;;;1.80;1.50;;;;;;;15.55;58.65;98663.25;5031718;28;20029;-80
2023/04/15 11:02:54;;;;;;;9.93;6.28;;;;;;;15.52;57.10;98679.25;5030012;28;20041;-81
2023/04/15 11:05:20;;;;;;;;;;;;;;;15.52;56.39;98696.78;5030092;28;20030;-81
2023/04/15 11:07:47;;;;;;;16.58;9.15;;;;;;;15.57;58.39;98700.69;5029874;28;19920;-81
2023/04/15 11:10:13;;;;;;;5.88;3.67;;;;;;;15.79;57.79;98701.56;5029984;28;20029;-81
2023/04/15 11:12:39;;;;;;;6.53;3.67;;;;;;;15.86;57.56;98711.44;5029819;28;20037;-81
2023/04/15 11:15:26;;;;;;;9.60;4.93;;;;;;;15.73;57.61;98713.44;5030095;28;20045;-81
2023/04/15 11:17:52;;;;;;;1.40;1.30;;;;;;;15.55;55.61;98700.00;5029919;28;20029;-81
2023/04/15 11:20:17;;;;;;;1.45;1.35;;;;;;;15.59;56.89;98695.31;5029517;28;20121;-81